24h
CUSTOMER SERVICE:
Saartelennuliinid: +372 58856336 (24/7)
Airport ticket info +372 6058887; +372 55603687

08.12.2018 hommikune Transaviabaltika lend KTB672 Tallinn - Kärdla ja KTB673 Kärdla – Tallinn väljalend jääb ära. Lennu ära jäämise põhjustab ilmastikuolu Kärdla lennuväljal. Reisijatele võimaldatakse tasuta lennupileti ümberbroneerimine reisija soovi kohasele mõnele teisele Tallinn-Kärdla või Kärdla-Tallinn lennule. Reisijatele kes ei soovi lennupileti ümberbroneerimist teisele lennule tagastatakse piletiraha. Oma soovist tuleb teada anda e-mailile [email protected] Lisainformatsioon telefonil 58856336

EEKA Kärdla lennuväli FCEO32 EETN 080500

TAF EEKA 080500Z 0806/0812 16015G25KT 2000 RADZ BR OVC003 TEMPO 0806/0808 0700 FG VV002=

METAR EEKA 080550Z 14016KT 5000 BR OVC002 03/// Q0991=
Date: 
08/12/2018